Terminal Aerodrome Forecast
Issued by NWS

Home | Current Version | Previous Version | Text Only | Print | Product List | Glossary On
Versions: 1 2 3 4 5 6 7 8 9 10 11 12 13
000
FTUS46 KPDT 052320
TAFYKM
TAF
KYKM 052320Z 0600/0624 36007KT P6SM VCSH SCT050 BKN100
     FM060400 32009KT P6SM SCT060 BKN100
     FM061200 32009KT P6SM SCT100 BKN200
     FM061900 35009KT P6SM SCT200=

USA.gov is the U.S. government's official web portal to all federal, state and local government web resources and services.